Eureka, Nunavut

5:22 PM CDT on August 27, 2016 (GMT -0500)
Eureka | | Change Station

Elev 33 ft 79.98 °N, 85.93 °W | Updated 22 minutes ago

Mostly Cloudy
Mostly Cloudy
39 °F
Feels Like 39 °F
N
2
Wind Variable Wind from Variable

Today
High -- | Low -- °F
--% Chance of Precip.
Yesterday
High -- | Low -- °F
Precip. -- in
Pressure 30.18 in
Visibility 15.0 miles
Clouds Mostly Cloudy 6500 ft
Mostly Cloudy 14000 ft
Dew Point 32 °F
Humidity 75%
Rainfall 0.00 in
Snow Depth Not available.
1:17 AM 0:12 AM
Waning Crescent, 21% visible
METAR CWEU 272200Z VRB02KT 15SM BKN065 BKN140 04/00 A3017 RMK SC7AC1 AC TR SLP220
Pressure 30.18 in
Visibility 15.0 miles
Clouds Mostly Cloudy 6500 ft
Mostly Cloudy 14000 ft
Dew Point 32 °F
Humidity 75%
Rainfall 0.00 in
Snow Depth Not available.
1:17 AM 0:12 AM
Waning Crescent, 21% visible
METAR CWEU 272200Z VRB02KT 15SM BKN065 BKN140 04/00 A3017 RMK SC7AC1 AC TR SLP220

10-Day Weather Forecast

No radar image for this location.
×

Almanac

Astronomy

Aug. 27, 2016 Rise Set
Actual Time
Civil Twilight
Nautical Twilight
Astronomical Twilight
Moon
Length of Visible Light
Length of Day
Tomorrow will be .
, % of the Moon is Illuminated

Today's Extremes

Country Highs Country Lows

Community

WunderPhotos

Upload Photos

1,935,455 photos uploaded!

WunderBlog® & News

Nearby

Air Quality

  Air Quality AQ Index Pollutant
Not available.

Snow Depth

Station Depth Elevation

Earthquake Activity

City Distance Mag. Time & Date
Minimum magnitude displayed is 2.5.

Coastal Water Temperatures

Place Temperature

Stations

Nearby Weather Stations

Station Location Temp. Windchill Dew Point Humidity Wind Precip. Elev Updated Type
                   

Watches & Warnings

There are currently no watches in effect.